Time;durP1;ratioP1;P1;durP2;ratioP2;P2;SDS_P1;SDS_P2;PMS_P1;PMS_P2;Temp;Humidity;BMP_temperature;BMP_pressure;BME280_temperature;BME280_humidity;BME280_pressure;Samples;Min_cycle;Max_cycle;Signal;HPM_P1;HPM_P2
2023/06/24 00:05:12;;;;;;;18.00;9.27;;;;;;;16.70;100.00;94699.09;5100700;28;20038;-87
2023/06/24 00:07:56;;;;;;;18.67;9.68;;;;;;;16.72;100.00;94693.53;5116528;28;20032;-88
2023/06/24 00:10:22;;;;;;;16.10;8.63;;;;;;;16.64;100.00;94693.13;5098620;28;20028;-87
2023/06/24 00:12:48;;;;;;;15.57;8.88;;;;;;;16.66;100.00;94695.50;5098900;28;20036;-87
2023/06/24 00:18:05;;;;;;;17.55;8.45;;;;;;;16.70;100.00;94696.47;5100838;28;20030;-88
2023/06/24 00:20:30;;;;;;;15.38;9.18;;;;;;;16.59;100.00;94695.09;5082572;28;20058;-89
2023/06/24 00:23:03;;;;;;;19.65;9.13;;;;;;;16.47;100.00;94685.81;5098483;28;20127;-88
2023/06/24 00:25:33;;;;;;;22.50;9.57;;;;;;;16.36;100.00;94677.31;5097350;28;20388;-88
2023/06/24 00:27:59;;;;;;;16.55;9.60;;;;;;;16.35;100.00;94680.25;5098193;28;20030;-88
2023/06/24 00:30:26;;;;;;;15.90;9.93;;;;;;;16.37;100.00;94683.41;5097826;28;20031;-87
2023/06/24 00:32:51;;;;;;;18.42;9.40;;;;;;;16.37;100.00;94686.81;5097867;28;20027;-87
2023/06/24 00:35:17;;;;;;;12.82;8.68;;;;;;;16.39;100.00;94683.88;5097700;28;20072;-88
2023/06/24 00:38:04;;;;;;;14.50;9.27;;;;;;;16.31;100.00;94679.28;5097641;28;20114;-88
2023/06/24 00:40:30;;;;;;;20.90;8.43;;;;;;;16.25;100.00;94674.09;5115618;28;20114;-88
2023/06/24 00:42:56;;;;;;;12.20;8.18;;;;;;;16.42;100.00;94675.34;5097506;28;20102;-88
2023/06/24 00:45:23;;;;;;;16.52;8.82;;;;;;;16.36;100.00;94671.25;5097310;28;20031;-88
2023/06/24 00:51:11;;;;;;;18.17;9.15;;;;;;;16.30;100.00;94661.84;5115574;28;20034;-88
2023/06/24 00:53:44;;;;;;;22.25;8.77;;;;;;;16.20;100.00;94654.91;5097142;28;20023;-88
2023/06/24 00:56:13;;;;;;;13.95;8.57;;;;;;;16.24;100.00;94661.16;5080892;28;20034;-88
2023/06/24 00:58:39;;;;;;;19.58;8.73;;;;;;;16.15;100.00;94670.88;5097685;28;20344;-88
2023/06/24 01:03:48;;;;;;;19.80;8.45;;;;;;;16.10;100.00;94661.97;5100047;28;20053;-88
2023/06/24 01:06:14;;;;;;;16.75;8.43;;;;;;;16.07;100.00;94665.19;5097008;28;20428;-88
2023/06/24 01:09:00;;;;;;;14.23;7.32;;;;;;;16.28;100.00;94661.38;5097623;28;20066;-88
2023/06/24 01:11:32;;;;;;;16.60;8.18;;;;;;;16.16;100.00;94664.53;5097848;28;20127;-88
2023/06/24 01:13:57;;;;;;;14.82;8.32;;;;;;;16.04;100.00;94659.72;5100444;28;20027;-88
2023/06/24 01:16:49;;;;;;;15.77;8.43;;;;;;;15.89;100.00;94666.06;5099559;28;20034;-88
2023/06/24 01:19:52;;;;;;;12.98;7.45;;;;;;;15.93;100.00;94675.78;5099907;28;20031;-88
2023/06/24 01:22:48;;;;;;;17.13;7.20;;;;;;;16.08;100.00;94666.75;5117584;28;20034;-87
2023/06/24 01:25:31;;;;;;;12.73;8.07;;;;;;;15.92;100.00;94668.13;5117723;28;20034;-87
2023/06/24 01:31:18;;;;;;;15.70;8.40;;;;;;;16.15;100.00;94678.81;5130360;27;20363;-88
2023/06/24 01:33:50;;;;;;;19.02;9.23;;;;;;;16.04;100.00;94675.56;5129587;27;20069;-87
2023/06/24 01:36:18;;;;;;;14.95;7.43;;;;;;;16.09;100.00;94678.13;5112068;27;20062;-87
2023/06/24 01:38:47;;;;;;;10.60;6.97;;;;;;;16.08;100.00;94676.56;5093947;28;20122;-87
2023/06/24 01:41:14;;;;;;;14.98;6.97;;;;;;;16.02;100.00;94683.00;5097650;27;20038;-87
2023/06/24 01:43:40;;;;;;;13.43;6.63;;;;;;;16.02;100.00;94677.72;5095666;28;20039;-87
2023/06/24 01:46:07;;;;;;;20.67;7.15;;;;;;;15.88;100.00;94683.75;5098866;28;20062;-88
2023/06/24 01:48:35;;;;;;;16.25;7.72;;;;;;;15.84;100.00;94683.56;5099219;28;20080;-87
2023/06/24 01:51:20;;;;;;;14.93;7.28;;;;;;;15.84;100.00;94688.84;5116425;28;20031;-88
2023/06/24 01:53:51;;;;;;;20.45;8.18;;;;;;;15.78;100.00;94689.22;5116452;28;20070;-87
2023/06/24 01:56:35;;;;;;;13.43;7.78;;;;;;;15.75;100.00;94684.53;5079382;28;20485;-88
2023/06/24 01:59:03;;;;;;;13.07;7.95;;;;;;;15.73;100.00;94690.13;5116389;28;20023;-88
2023/06/24 02:01:51;;;;;;;14.05;7.50;;;;;;;15.78;100.00;94691.88;5116247;28;20031;-87
2023/06/24 02:04:21;;;;;;;13.52;7.18;;;;;;;15.85;100.00;94684.34;5099016;28;20034;-88
2023/06/24 02:06:47;;;;;;;14.60;6.97;;;;;;;15.82;100.00;94685.72;5093221;28;20030;-87
2023/06/24 02:09:34;;;;;;;13.90;6.85;;;;;;;15.92;100.00;94686.63;5117748;28;20728;-88
2023/06/24 02:12:01;;;;;;;11.25;7.05;;;;;;;15.99;100.00;94686.25;5122816;28;20032;-88
2023/06/24 02:14:28;;;;;;;16.00;7.90;;;;;;;16.02;100.00;94681.16;5080637;28;20031;-88
2023/06/24 02:16:57;;;;;;;13.95;7.82;;;;;;;15.89;100.00;94680.06;5097715;28;20359;-88
2023/06/24 02:19:25;;;;;;;23.63;8.27;;;;;;;15.87;100.00;94684.84;5080917;28;20088;-87
2023/06/24 02:21:54;;;;;;;15.15;6.93;;;;;;;15.84;100.00;94691.47;5097428;28;20340;-88
2023/06/24 02:24:20;;;;;;;15.43;7.60;;;;;;;16.04;100.00;94679.00;5114484;28;20038;-87
2023/06/24 02:26:46;;;;;;;13.07;7.22;;;;;;;15.92;100.00;94689.28;5080488;28;20104;-88
2023/06/24 02:29:13;;;;;;;10.52;6.72;;;;;;;16.04;100.00;94691.44;5096827;28;20057;-87
2023/06/24 02:31:38;;;;;;;12.50;7.22;;;;;;;16.03;100.00;94698.59;5080791;28;20036;-88
2023/06/24 02:34:04;;;;;;;15.75;7.07;;;;;;;16.12;100.00;94693.41;5097152;28;20032;-87
2023/06/24 02:36:30;;;;;;;16.52;8.82;;;;;;;16.14;100.00;94699.16;5096965;28;20058;-88
2023/06/24 02:39:14;;;;;;;16.10;7.82;;;;;;;16.05;100.00;94699.06;5079752;28;20036;-87
2023/06/24 02:41:39;;;;;;;13.50;8.32;;;;;;;16.22;100.00;94695.06;5114386;28;20383;-88
2023/06/24 02:44:05;;;;;;;18.27;9.57;;;;;;;16.16;100.00;94698.88;5096980;28;20031;-88
2023/06/24 02:46:34;;;;;;;22.27;8.68;;;;;;;16.19;100.00;94703.56;5113984;28;20306;-88
2023/06/24 02:49:00;;;;;;;17.20;8.15;;;;;;;16.09;100.00;94702.69;5080609;28;20031;-87
2023/06/24 02:51:34;;;;;;;13.43;8.43;;;;;;;16.14;100.00;94693.88;5097055;28;20024;-87
2023/06/24 02:54:26;;;;;;;16.40;7.25;;;;;;;16.16;100.00;94702.28;5097435;28;20447;-87
2023/06/24 02:56:52;;;;;;;16.60;8.75;;;;;;;16.04;100.00;94702.00;5114821;28;20110;-88
2023/06/24 02:59:21;;;;;;;14.40;8.25;;;;;;;16.04;100.00;94699.34;5098596;28;20118;-88
2023/06/24 03:02:06;;;;;;;17.05;8.35;;;;;;;15.95;100.00;94709.81;5101107;28;20034;-88
2023/06/24 03:04:31;;;;;;;13.63;7.35;;;;;;;15.97;100.00;94702.38;5100220;28;20032;-88
2023/06/24 03:06:59;;;;;;;11.93;7.10;;;;;;;16.03;100.00;94706.50;5100198;28;20363;-87
2023/06/24 03:12:47;;;;;;;12.45;6.97;;;;;;;15.96;100.00;94700.81;5120096;28;20042;-87
2023/06/24 03:15:22;;;;;;;;;;;;;;;;;;;;;
2023/06/24 03:17:53;;;;;;;12.05;6.90;;;;;;;15.87;100.00;94708.63;5103274;28;20020;-88
2023/06/24 03:20:20;;;;;;;16.95;6.93;;;;;;;15.92;100.00;94700.66;5101909;28;20067;-87
2023/06/24 03:22:56;;;;;;;;;;;;;;;;;;;;;
2023/06/24 03:25:21;;;;;;;15.02;6.10;;;;;;;15.87;100.00;94700.69;5118352;28;20022;-87
2023/06/24 03:30:31;;;;;;;10.98;5.82;;;;;;;15.68;100.00;94720.03;5121534;27;20042;-87
2023/06/24 03:32:57;;;;;;;14.07;6.05;;;;;;;15.57;100.00;94712.59;5114216;28;20433;-87
2023/06/24 03:35:23;;;;;;;11.02;6.10;;;;;;;15.57;100.00;94710.72;5108699;28;20126;-87
2023/06/24 03:37:49;;;;;;;11.57;6.40;;;;;;;15.53;100.00;94715.03;5107018;27;20146;-87
2023/06/24 03:40:17;;;;;;;10.32;5.57;;;;;;;15.56;100.00;94714.44;5113131;28;20063;-87
2023/06/24 03:42:42;;;;;;;12.10;5.40;;;;;;;15.61;100.00;94711.69;5119723;28;20356;-87
2023/06/24 03:45:08;;;;;;;15.50;6.28;;;;;;;15.65;100.00;94717.19;5084150;28;20027;-87
2023/06/24 03:47:33;;;;;;;9.25;6.07;;;;;;;15.56;100.00;94719.72;5101529;28;20031;-87
2023/06/24 03:50:17;;;;;;;11.15;5.97;;;;;;;15.60;100.00;94725.22;5101542;28;20377;-87
2023/06/24 03:55:27;;;;;;;16.63;6.00;;;;;;;15.63;100.00;94728.03;5104025;28;20386;-87
2023/06/24 03:57:52;;;;;;;18.33;5.95;;;;;;;15.74;100.00;94741.06;5084095;28;20043;-87
2023/06/24 04:00:20;;;;;;;11.88;5.78;;;;;;;15.76;100.00;94738.94;5119232;28;20336;-87
2023/06/24 04:02:46;;;;;;;14.90;5.75;;;;;;;15.74;100.00;94739.22;5119115;28;20115;-88
2023/06/24 04:05:11;;;;;;;12.70;6.22;;;;;;;15.61;100.00;94737.34;5100594;28;20123;-87
2023/06/24 04:07:38;;;;;;;10.73;5.25;;;;;;;15.50;100.00;94742.78;5101330;28;20076;-87
2023/06/24 04:10:08;;;;;;;14.75;6.47;;;;;;;15.46;100.00;94747.09;5100931;28;20031;-87
2023/06/24 04:12:36;;;;;;;10.35;5.10;;;;;;;15.66;100.00;94747.81;5101650;28;20027;-87
2023/06/24 04:15:03;;;;;;;12.65;5.70;;;;;;;15.79;100.00;94748.94;5100841;28;20050;-87
2023/06/24 04:17:31;;;;;;;11.32;5.65;;;;;;;15.87;100.00;94753.53;5101155;28;20027;-87
2023/06/24 04:19:59;;;;;;;12.90;5.68;;;;;;;16.02;100.00;94757.81;5101277;28;20020;-87
2023/06/24 04:22:25;;;;;;;11.65;5.22;;;;;;;16.11;100.00;94756.03;5084039;28;20035;-87
2023/06/24 04:24:50;;;;;;;10.45;4.85;;;;;;;15.96;100.00;94765.03;5100276;28;20424;-88
2023/06/24 04:27:16;;;;;;;15.52;5.32;;;;;;;16.04;100.00;94768.06;5084183;28;20396;-87
2023/06/24 04:29:42;;;;;;;11.93;5.45;;;;;;;16.07;100.00;94770.16;5101161;28;20028;-87
2023/06/24 04:32:07;;;;;;;17.52;6.07;;;;;;;16.10;100.00;94772.19;5084124;28;20033;-87
2023/06/24 04:34:33;;;;;;;15.10;5.50;;;;;;;16.18;100.00;94774.16;5087001;27;20041;-87
2023/06/24 04:36:58;;;;;;;13.77;5.53;;;;;;;16.15;100.00;94785.31;5104403;27;20027;-87
2023/06/24 04:39:24;;;;;;;12.63;5.55;;;;;;;16.22;100.00;94783.09;5120977;27;20023;-87
2023/06/24 04:41:52;;;;;;;8.07;5.30;;;;;;;16.31;100.00;94785.03;5104033;27;20026;-87
2023/06/24 04:44:19;;;;;;;15.43;6.00;;;;;;;16.31;100.00;94782.38;5120471;27;20034;-87
2023/06/24 04:46:45;;;;;;;15.70;6.03;;;;;;;16.17;100.00;94788.44;5120914;27;20030;-87
2023/06/24 04:49:11;;;;;;;11.32;6.13;;;;;;;16.18;100.00;94787.38;5103929;27;20027;-87
2023/06/24 04:51:36;;;;;;;19.95;6.20;;;;;;;16.12;100.00;94783.25;5120593;27;20117;-87
2023/06/24 04:54:03;;;;;;;15.95;6.80;;;;;;;16.16;100.00;94788.75;5120662;27;20122;-87
2023/06/24 04:56:28;;;;;;;14.82;6.05;;;;;;;16.11;100.00;94797.56;5104071;27;20335;-87
2023/06/24 04:58:54;;;;;;;15.93;6.90;;;;;;;16.24;100.00;94788.84;5120717;27;20027;-87
2023/06/24 05:01:19;;;;;;;14.27;6.53;;;;;;;16.34;100.00;94792.38;5103654;27;20072;-87
2023/06/24 05:03:47;;;;;;;11.40;5.97;;;;;;;16.51;100.00;94791.78;5120616;27;20027;-87
2023/06/24 05:06:12;;;;;;;14.57;5.78;;;;;;;16.54;100.00;94797.28;5103703;27;20072;-87
2023/06/24 05:08:38;;;;;;;13.20;6.05;;;;;;;16.74;100.00;94794.53;5120844;27;20020;-87
2023/06/24 05:11:03;;;;;;;11.63;5.65;;;;;;;16.92;100.00;94796.28;5115464;28;20027;-86
2023/06/24 05:13:29;;;;;;;14.70;5.70;;;;;;;16.89;100.00;94796.88;5117744;28;20030;-86
2023/06/24 05:15:54;;;;;;;9.60;5.88;;;;;;;17.02;100.00;94791.88;5119036;27;20031;-87
2023/06/24 05:18:20;;;;;;;11.55;5.90;;;;;;;17.07;100.00;94799.72;5120430;27;20122;-86
2023/06/24 05:20:45;;;;;;;16.77;5.85;;;;;;;17.06;100.00;94798.16;5136941;27;20027;-86
2023/06/24 05:23:10;;;;;;;11.63;6.03;;;;;;;17.21;100.00;94804.94;5119404;27;20355;-86
2023/06/24 05:25:36;;;;;;;17.77;5.43;;;;;;;17.24;100.00;94801.72;5119654;27;20042;-86
2023/06/24 05:28:02;;;;;;;13.02;5.35;;;;;;;17.51;100.00;94800.06;5119696;27;20027;-86
2023/06/24 05:30:27;;;;;;;11.63;5.20;;;;;;;17.72;100.00;94799.59;5101692;27;20425;-86
2023/06/24 05:32:52;;;;;;;8.88;4.70;;;;;;;17.96;100.00;94804.56;5099283;28;20032;-86
2023/06/24 05:35:18;;;;;;;14.90;4.65;;;;;;;18.00;100.00;94797.56;5098475;27;20035;-86
2023/06/24 05:37:43;;;;;;;8.23;4.43;;;;;;;18.13;100.00;94806.56;5116144;28;20446;-86
2023/06/24 05:40:16;;;;;;;16.23;4.72;;;;;;;18.30;100.00;94797.91;5082473;28;20019;-87
2023/06/24 05:42:43;;;;;;;8.95;4.50;;;;;;;18.49;100.00;94796.88;5111550;27;20051;-86
2023/06/24 05:45:08;;;;;;;14.88;5.28;;;;;;;18.72;100.00;94800.22;5102386;27;20042;-87
2023/06/24 05:47:37;;;;;;;7.47;4.22;;;;;;;18.95;100.00;94805.44;5102738;28;20031;-86
2023/06/24 05:50:03;;;;;;;8.02;5.03;;;;;;;19.13;100.00;94814.22;5117502;27;20424;-87
2023/06/24 05:52:29;;;;;;;13.05;5.10;;;;;;;19.30;100.00;94818.78;5119656;28;20083;-86
2023/06/24 05:54:54;;;;;;;7.72;4.35;;;;;;;19.36;100.00;94812.22;5119497;28;20027;-87
2023/06/24 05:57:20;;;;;;;7.85;4.65;;;;;;;19.40;100.00;94819.59;5119548;28;20056;-86
2023/06/24 05:59:45;;;;;;;9.15;5.18;;;;;;;19.21;100.00;94821.44;5102259;28;20031;-86
2023/06/24 06:02:10;;;;;;;10.50;5.00;;;;;;;19.36;100.00;94827.38;5119521;28;20108;-86
2023/06/24 06:04:36;;;;;;;11.65;5.47;;;;;;;19.30;100.00;94834.72;5102394;28;20351;-86
2023/06/24 06:07:01;;;;;;;11.23;5.30;;;;;;;19.45;100.00;94830.84;5119332;28;20054;-87
2023/06/24 06:09:27;;;;;;;18.83;5.78;;;;;;;19.34;100.00;94837.53;5103664;28;20113;-86
2023/06/24 06:11:52;;;;;;;9.38;5.18;;;;;;;19.26;100.00;94846.28;5119282;28;20027;-87
2023/06/24 06:14:17;;;;;;;14.88;5.43;;;;;;;19.20;100.00;94843.78;5136965;28;20019;-87
2023/06/24 06:16:43;;;;;;;10.55;5.05;;;;;;;19.29;100.00;94845.66;5119427;28;20031;-87
2023/06/24 06:19:08;;;;;;;8.55;5.03;;;;;;;19.49;100.00;94834.44;5119647;28;20027;-89
2023/06/24 06:21:36;;;;;;;26.02;5.75;;;;;;;19.42;100.00;94847.38;5119765;28;20035;-88
2023/06/24 06:24:02;;;;;;;11.00;5.63;;;;;;;19.58;100.00;94845.06;5119911;28;20027;-89
2023/06/24 06:26:28;;;;;;;13.20;5.25;;;;;;;19.82;100.00;94846.47;5136527;28;20034;-89
2023/06/24 06:28:53;;;;;;;11.38;5.20;;;;;;;19.61;100.00;94852.41;5120025;28;20088;-90
2023/06/24 06:31:21;;;;;;;10.40;5.00;;;;;;;19.94;100.00;94851.16;5119585;28;20059;-88
2023/06/24 06:33:47;;;;;;;10.63;5.35;;;;;;;20.21;100.00;94854.56;5105803;27;20023;-89
2023/06/24 06:36:13;;;;;;;16.08;5.15;;;;;;;20.05;100.00;94863.03;5123231;27;20348;-88
2023/06/24 06:38:42;;;;;;;10.63;4.72;;;;;;;20.07;100.00;94857.38;5123554;27;20099;-89
2023/06/24 06:41:07;;;;;;;15.20;5.22;;;;;;;20.22;100.00;94868.63;5107120;27;20065;-90
2023/06/24 06:43:33;;;;;;;13.45;4.90;;;;;;;20.20;100.00;94872.38;5106912;27;20117;-88
2023/06/24 06:45:59;;;;;;;12.90;4.65;;;;;;;20.29;100.00;94866.28;5123475;27;20097;-91
2023/06/24 06:48:24;;;;;;;15.13;5.63;;;;;;;20.24;100.00;94871.78;5123803;27;20027;-91
2023/06/24 06:50:52;;;;;;;18.05;5.40;;;;;;;20.00;100.00;94868.50;5123664;27;20088;-92
2023/06/24 06:53:18;;;;;;;12.43;4.47;;;;;;;20.27;100.00;94863.16;5106673;27;20034;-90
2023/06/24 06:55:44;;;;;;;9.15;4.57;;;;;;;20.52;100.00;94868.72;5122768;27;20027;-88
2023/06/24 06:58:09;;;;;;;16.02;5.18;;;;;;;20.39;100.00;94863.28;5123331;27;20317;-86
2023/06/24 07:00:35;;;;;;;16.58;5.35;;;;;;;20.44;100.00;94864.97;5139984;27;20080;-87
2023/06/24 07:03:00;;;;;;;10.50;4.30;;;;;;;20.70;100.00;94867.56;5122911;27;20026;-86
2023/06/24 07:05:25;;;;;;;19.23;4.63;;;;;;;20.84;100.00;94862.03;5140725;27;20023;-87
2023/06/24 07:07:51;;;;;;;7.82;4.30;;;;;;;20.91;100.00;94869.50;5122593;27;20023;-86
2023/06/24 07:10:19;;;;;;;10.63;4.45;;;;;;;21.14;100.00;94867.34;5122413;27;20024;-87
2023/06/24 07:12:45;;;;;;;11.00;3.95;;;;;;;21.08;100.00;94867.84;5140946;27;20054;-88
2023/06/24 07:15:11;;;;;;;9.98;5.72;;;;;;;21.29;100.00;94857.22;5122190;27;20067;-87
2023/06/24 07:17:36;;;;;;;11.77;7.00;;;;;;;21.45;100.00;94860.91;5139787;27;20377;-87
2023/06/24 07:20:02;;;;;;;9.15;4.00;;;;;;;21.57;100.00;94851.41;5139971;27;20019;-87
2023/06/24 07:22:27;;;;;;;15.30;3.90;;;;;;;21.56;100.00;94853.28;5122466;27;20026;-87
2023/06/24 07:24:53;;;;;;;1483.30;839.50;;;;;;;21.61;100.00;94852.31;5139092;27;20027;-87
2023/06/24 07:27:18;;;;;;;45.58;28.02;;;;;;;21.73;100.00;94851.63;5122623;27;20075;-87
2023/06/24 07:29:44;;;;;;;11.45;4.50;;;;;;;21.72;100.00;94840.16;5139446;27;20023;-86
2023/06/24 07:32:11;;;;;;;14.07;4.65;;;;;;;21.64;100.00;94846.34;5117371;27;20035;-89
2023/06/24 07:34:40;;;;;;;8.13;3.58;;;;;;;21.63;100.00;94836.78;5122338;27;20439;-88
2023/06/24 07:37:18;;;;;;;12.95;4.90;;;;;;;21.42;100.00;94842.13;5101706;27;20022;-90
2023/06/24 07:40:05;;;;;;;;;;;;;;;;;;;;;
2023/06/24 07:42:30;;;;;;;12.57;4.20;;;;;;;21.30;100.00;94837.47;5140279;27;20019;-88
2023/06/24 07:45:11;;;;;;;;;;;;;;;;;;;;;
2023/06/24 07:47:36;;;;;;;13.93;4.03;;;;;;;21.73;100.00;94841.75;5122840;27;20026;-88
2023/06/24 07:50:02;;;;;;;10.45;3.72;;;;;;;21.78;100.00;94837.31;5105122;27;20121;-87
2023/06/24 07:52:27;;;;;;;10.05;3.90;;;;;;;21.60;100.00;94845.44;5122020;27;20135;-89
2023/06/24 07:54:53;;;;;;;9.10;4.03;;;;;;;21.71;100.00;94848.50;5101428;28;20320;-89
2023/06/24 07:57:20;;;;;;;11.55;3.17;;;;;;;21.70;100.00;94846.94;5101455;28;20040;-87
2023/06/24 07:59:46;;;;;;;7.45;3.78;;;;;;;21.89;100.00;94855.25;5092708;28;20027;-89
2023/06/24 08:02:12;;;;;;;10.75;3.80;;;;;;;22.02;100.00;94852.63;5084665;28;20428;-86
2023/06/24 08:04:38;;;;;;;9.02;3.53;;;;;;;22.16;100.00;94858.44;5127945;27;20031;-88
2023/06/24 08:07:04;;;;;;;12.63;4.40;;;;;;;22.24;100.00;94864.81;5121860;27;20113;-88
2023/06/24 08:09:30;;;;;;;14.68;4.80;;;;;;;22.20;100.00;94863.13;5121586;27;20068;-89
2023/06/24 08:11:58;;;;;;;11.50;4.30;;;;;;;22.35;100.00;94862.47;5121749;27;20051;-88
2023/06/24 08:14:25;;;;;;;11.23;5.22;;;;;;;22.49;100.00;94864.09;5121258;27;20035;-89
2023/06/24 08:16:51;;;;;;;8.93;4.47;;;;;;;22.49;100.00;94864.09;5104552;27;20027;-89
2023/06/24 08:19:21;;;;;;;17.73;4.10;;;;;;;22.23;100.00;94865.13;5120991;27;20026;-87
2023/06/24 08:21:50;;;;;;;8.43;4.10;;;;;;;22.37;100.00;94862.94;5121703;27;20069;-87
2023/06/24 08:24:28;;;;;;;;;;;;;;;;;;;;;
2023/06/24 08:27:01;;;;;;;11.25;4.70;;;;;;;22.07;100.00;94873.75;5122834;27;20030;-88
2023/06/24 08:29:34;;;;;;;8.80;4.25;;;;;;;22.39;100.00;94871.41;5121047;27;20339;-88
2023/06/24 08:32:12;;;;;;;;;;;;;;;;;;;;;
2023/06/24 08:34:38;;;;;;;9.38;3.13;;;;;;;22.30;100.00;94870.72;5122369;27;20027;-88
2023/06/24 08:37:04;;;;;;;16.05;3.63;;;;;;;22.21;100.00;94876.13;5121260;27;20130;-88
2023/06/24 08:39:30;;;;;;;6.10;3.30;;;;;;;22.34;100.00;94871.59;5138863;27;20031;-89
2023/06/24 17:11:32;;;;;;;5.28;1.67;;;;;;;24.74;51.49;94690.97;5075573;28;20041;-83
2023/06/24 17:13:57;;;;;;;3.13;1.10;;;;;;;24.40;52.78;94683.34;5059632;28;20048;-83
2023/06/24 17:16:23;;;;;;;2.58;1.08;;;;;;;24.31;52.90;94694.25;5076987;28;20098;-83
2023/06/24 17:18:48;;;;;;;4.63;1.52;;;;;;;24.51;54.97;94684.38;5074954;28;20036;-83
2023/06/24 17:21:14;;;;;;;2.22;1.05;;;;;;;24.98;63.44;94695.31;5059185;28;20062;-84
2023/06/24 17:23:39;;;;;;;4.38;1.08;;;;;;;24.40;55.86;94689.50;5075665;28;20082;-83
2023/06/24 17:26:07;;;;;;;2.85;1.13;;;;;;;24.49;59.50;94691.97;5044088;28;20040;-82
2023/06/24 17:28:32;;;;;;;4.45;1.02;;;;;;;23.66;59.95;94695.31;5038960;28;20080;-84
2023/06/24 17:30:57;;;;;;;2.80;1.10;;;;;;;23.71;55.98;94700.44;5051244;28;20083;-83
2023/06/24 17:33:25;;;;;;;4.60;1.10;;;;;;;23.78;56.97;94700.59;5071279;28;20098;-84
2023/06/24 17:35:52;;;;;;;1.38;0.90;;;;;;;23.80;54.50;94694.91;5049212;28;20447;-83
2023/06/24 17:38:18;;;;;;;3.22;0.90;;;;;;;23.44;55.12;94700.88;5071784;28;20104;-84
2023/06/24 17:40:43;;;;;;;2.30;1.00;;;;;;;23.43;56.08;94695.91;5080843;28;20131;-84
2023/06/24 17:43:09;;;;;;;3.13;1.35;;;;;;;23.13;58.60;94693.56;5068463;28;20127;-83
2023/06/24 17:45:34;;;;;;;3.63;1.08;;;;;;;23.00;61.37;94695.47;5075820;28;20036;-83
2023/06/24 17:48:03;;;;;;;3.40;1.13;;;;;;;22.88;59.18;94696.28;5066515;28;20115;-85
2023/06/24 17:50:31;;;;;;;3.08;0.90;;;;;;;23.14;59.93;94701.22;5065371;28;20356;-85
2023/06/24 17:52:57;;;;;;;2.35;1.08;;;;;;;23.27;62.52;94698.53;5066535;28;20352;-85
2023/06/24 17:55:23;;;;;;;1.75;1.08;;;;;;;23.23;63.02;94700.31;5067308;28;20036;-86
2023/06/24 17:57:48;;;;;;;4.30;0.90;;;;;;;22.82;67.60;94697.66;5070698;28;20032;-86
2023/06/24 18:00:14;;;;;;;1.75;1.08;;;;;;;22.85;65.53;94699.63;5059123;28;20467;-86
2023/06/24 18:02:39;;;;;;;5.22;1.20;;;;;;;22.98;66.46;94698.50;5076614;28;20036;-86
2023/06/24 18:05:05;;;;;;;2.45;0.90;;;;;;;22.80;64.98;94692.63;5058622;28;20115;-86
2023/06/24 18:07:30;;;;;;;5.15;1.25;;;;;;;22.58;62.59;94693.91;5041747;28;20033;-86
2023/06/24 18:09:56;;;;;;;4.07;1.20;;;;;;;22.01;75.86;94693.66;5051166;28;20127;-86
2023/06/24 18:12:22;;;;;;;3.67;1.00;;;;;;;21.43;75.42;94692.50;5039035;28;20052;-86
2023/06/24 18:14:47;;;;;;;1.15;1.00;;;;;;;21.66;76.51;94694.84;5038447;28;20039;-86
2023/06/24 18:17:13;;;;;;;1.63;1.00;;;;;;;21.61;79.77;94695.78;5038424;28;20098;-86
2023/06/24 18:19:42;;;;;;;1.83;0.90;;;;;;;21.38;79.64;94699.97;5021850;28;20041;-86
2023/06/24 18:22:07;;;;;;;8.32;1.73;;;;;;;21.21;78.04;94709.66;5039372;28;20057;-86
2023/06/24 18:24:34;;;;;;;1.65;0.80;;;;;;;21.60;76.71;94704.91;5038654;28;20432;-86
2023/06/24 18:26:59;;;;;;;2.20;1.10;;;;;;;20.91;81.51;94704.41;5055950;28;20033;-86
2023/06/24 18:29:25;;;;;;;2.88;1.20;;;;;;;20.92;79.86;94705.97;5040654;28;20043;-86
2023/06/24 18:31:50;;;;;;;1.55;1.08;;;;;;;20.84;79.58;94699.59;5060198;28;20400;-85
2023/06/24 18:34:16;;;;;;;5.15;1.30;;;;;;;21.11;76.66;94696.75;5042461;28;20043;-86
2023/06/24 18:36:41;;;;;;;1.88;0.90;;;;;;;20.90;75.94;94702.84;5041972;28;20060;-86
2023/06/24 18:39:06;;;;;;;0.85;0.70;;;;;;;20.79;81.65;94705.09;5059182;28;20044;-86
2023/06/24 18:41:32;;;;;;;5.88;1.00;;;;;;;20.65;81.99;94701.91;5042611;28;20078;-86
2023/06/24 18:43:58;;;;;;;2.30;1.13;;;;;;;20.75;82.90;94704.19;5041262;28;20045;-86
2023/06/24 18:46:41;;;;;;;3.42;0.90;;;;;;;20.81;85.28;94699.47;5059244;28;20044;-87
2023/06/24 18:49:06;;;;;;;6.32;1.20;;;;;;;20.57;89.91;94704.28;5058692;28;20041;-86
2023/06/24 18:51:33;;;;;;;3.45;1.02;;;;;;;20.46;94.71;94701.22;5042041;28;20029;-86
2023/06/24 18:53:59;;;;;;;1.67;0.95;;;;;;;20.49;88.08;94700.56;5042242;28;20049;-86
2023/06/24 18:56:24;;;;;;;2.03;1.13;;;;;;;20.26;97.33;94696.66;5041937;28;20105;-86
2023/06/24 18:58:50;;;;;;;3.92;1.27;;;;;;;20.21;89.10;94700.25;5041678;28;20132;-86
2023/06/24 19:01:17;;;;;;;0.82;0.70;;;;;;;20.53;86.70;94710.59;5042146;28;20132;-86
2023/06/24 19:03:43;;;;;;;1.65;0.90;;;;;;;20.60;89.64;94703.66;5041869;28;20044;-85
2023/06/24 19:06:08;;;;;;;1.55;0.80;;;;;;;20.56;89.23;94701.97;5059652;28;20392;-86
2023/06/24 19:08:34;;;;;;;3.65;1.27;;;;;;;20.35;90.86;94708.00;5041311;28;20041;-86
2023/06/24 19:10:59;;;;;;;1.25;0.95;;;;;;;20.55;90.88;94708.38;5057150;28;20044;-86
2023/06/24 19:13:25;;;;;;;1.83;0.88;;;;;;;20.38;88.06;94715.38;5061746;28;20044;-86
2023/06/24 19:15:50;;;;;;;2.80;1.20;;;;;;;20.13;89.36;94711.72;5061650;28;20040;-86
2023/06/24 19:18:16;;;;;;;3.47;0.90;;;;;;;20.38;87.54;94717.25;5061238;28;20047;-86
2023/06/24 19:20:44;;;;;;;6.72;1.17;;;;;;;20.30;88.77;94708.19;5062135;28;20036;-91
2023/06/24 19:23:10;;;;;;;2.60;1.00;;;;;;;20.33;87.34;94713.66;5047119;28;20474;-87
2023/06/24 19:25:36;;;;;;;1.75;0.90;;;;;;;20.05;93.67;94715.97;5080346;28;20114;-86
2023/06/24 19:28:02;;;;;;;3.85;0.90;;;;;;;19.98;94.76;94715.69;5079868;28;20490;-86
2023/06/24 19:30:28;;;;;;;1.00;0.70;;;;;;;20.02;99.86;94724.59;5080023;28;20130;-87
2023/06/24 19:32:53;;;;;;;2.10;1.02;;;;;;;19.85;98.89;94726.19;5080241;28;20497;-86
2023/06/24 19:35:19;;;;;;;2.13;1.02;;;;;;;20.00;94.36;94724.91;5080176;28;20042;-86
2023/06/24 19:37:45;;;;;;;1.30;0.95;;;;;;;20.13;93.47;94733.78;5079634;28;20344;-86
2023/06/24 19:40:11;;;;;;;8.65;1.30;;;;;;;19.91;97.45;94729.44;5078896;28;20063;-86
2023/06/24 19:42:37;;;;;;;3.55;1.00;;;;;;;19.92;100.00;94739.03;5079688;28;20444;-87
2023/06/24 19:45:04;;;;;;;1.98;0.98;;;;;;;19.83;95.41;94735.56;5079776;28;20040;-86
2023/06/24 19:47:29;;;;;;;1.38;0.80;;;;;;;19.96;96.96;94736.50;5079345;28;20039;-87
2023/06/24 19:49:56;;;;;;;2.05;0.90;;;;;;;20.05;94.99;94737.25;5079637;28;20337;-86
2023/06/24 19:52:22;;;;;;;2.75;0.90;;;;;;;20.23;93.27;94740.63;5097790;28;20040;-87
2023/06/24 19:54:48;;;;;;;2.63;1.08;;;;;;;20.15;94.05;94744.09;5080061;28;20059;-87
2023/06/24 19:57:13;;;;;;;1.80;0.98;;;;;;;20.20;92.73;94747.34;5092314;28;20036;-87
2023/06/24 19:59:40;;;;;;;2.10;1.00;;;;;;;20.10;97.41;94750.38;5059677;28;20090;-86
2023/06/24 20:02:06;;;;;;;1.60;0.95;;;;;;;19.90;97.38;94749.16;5046737;28;20043;-86
2023/06/24 20:04:31;;;;;;;4.57;0.93;;;;;;;19.75;96.92;94750.44;5042784;28;20033;-86
2023/06/24 20:06:57;;;;;;;9.52;1.15;;;;;;;19.73;99.59;94760.63;5059368;28;20046;-86
2023/06/24 20:09:22;;;;;;;1.58;0.80;;;;;;;19.74;100.00;94759.50;5077167;28;20388;-86
2023/06/24 20:11:47;;;;;;;0.98;0.82;;;;;;;19.89;100.00;94753.69;5042625;28;20114;-86
2023/06/24 20:14:13;;;;;;;2.42;0.98;;;;;;;19.80;100.00;94760.13;5059217;28;20080;-86
2023/06/24 20:16:38;;;;;;;2.38;1.10;;;;;;;19.94;100.00;94757.28;5058718;28;20043;-86
2023/06/24 20:19:03;;;;;;;2.80;1.00;;;;;;;19.48;100.00;94766.44;5059041;28;20033;-86
2023/06/24 20:21:29;;;;;;;1.30;0.90;;;;;;;19.65;100.00;94770.16;5042534;28;20036;-86
2023/06/24 20:23:54;;;;;;;3.35;1.00;;;;;;;19.67;100.00;94767.19;5058836;28;20048;-86
2023/06/24 20:26:20;;;;;;;3.83;1.02;;;;;;;19.82;100.00;94771.22;5059131;28;20040;-86